Time;durP1;ratioP1;P1;durP2;ratioP2;P2;SDS_P1;SDS_P2;PMS_P1;PMS_P2;Temp;Humidity;BMP_temperature;BMP_pressure;BME280_temperature;BME280_humidity;BME280_pressure;Samples;Min_cycle;Max_cycle;Signal;HPM_P1;HPM_P2
2023/03/24 00:01:00;;;;;;;14.77;6.03;;;;;;;13.69;73.88;99402.19;5036009;28;20021;-63
2023/03/24 00:03:28;;;;;;;12.65;5.97;;;;;;;13.72;73.47;99400.31;5042091;28;20067;-63
2023/03/24 00:06:00;;;;;;;11.93;6.00;;;;;;;13.76;73.58;99406.41;5036162;28;20038;-63
2023/03/24 00:08:34;;;;;;;10.98;5.53;;;;;;;13.75;73.56;99404.69;5035812;28;20025;-64
2023/03/24 00:11:08;;;;;;;14.32;5.45;;;;;;;13.81;73.40;99403.59;5051686;28;20056;-64
2023/03/24 00:13:37;;;;;;;12.63;5.80;;;;;;;13.81;73.25;99398.31;5027309;28;20040;-64
2023/03/24 00:16:13;;;;;;;9.82;5.38;;;;;;;13.69;74.39;99387.19;5039667;28;20029;-64
2023/03/24 00:18:39;;;;;;;11.90;5.60;;;;;;;13.73;73.86;99380.91;5039627;28;20502;-64
2023/03/24 00:21:06;;;;;;;13.38;6.07;;;;;;;13.71;74.13;99395.06;5039343;28;20027;-64
2023/03/24 00:23:32;;;;;;;9.93;5.32;;;;;;;13.65;74.52;99382.94;5039592;28;20462;-63
2023/03/24 00:26:08;;;;;;;10.38;5.88;;;;;;;13.70;74.48;99388.94;5039340;28;20030;-64
2023/03/24 00:28:35;;;;;;;9.98;5.57;;;;;;;13.62;75.03;99390.94;5039318;28;20040;-64
2023/03/24 00:31:02;;;;;;;8.63;4.37;;;;;;;13.64;74.46;99387.34;5037787;28;20029;-64
2023/03/24 00:33:31;;;;;;;11.68;4.60;;;;;;;13.65;74.38;99388.22;5039409;28;20021;-64
2023/03/24 00:35:58;;;;;;;9.68;5.93;;;;;;;13.69;74.60;99392.50;5039173;28;20432;-64
2023/03/24 00:38:25;;;;;;;10.82;4.55;;;;;;;13.71;73.83;99393.31;5039167;28;20017;-64
2023/03/24 00:40:50;;;;;;;9.27;4.97;;;;;;;13.61;74.77;99402.41;5037607;28;20495;-64
2023/03/24 00:43:16;;;;;;;10.13;5.07;;;;;;;13.68;74.43;99401.34;5039202;28;20079;-64
2023/03/24 00:45:45;;;;;;;9.27;4.87;;;;;;;13.68;74.51;99419.88;5038832;28;20029;-64
2023/03/24 00:48:18;;;;;;;9.43;4.88;;;;;;;13.72;74.29;99424.16;5039211;28;20029;-64
2023/03/24 00:50:46;;;;;;;10.25;4.80;;;;;;;13.71;74.46;99429.47;5037722;28;20371;-64
2023/03/24 00:53:14;;;;;;;8.52;4.75;;;;;;;13.76;74.38;99441.66;5038812;28;20555;-64
2023/03/24 00:55:40;;;;;;;9.25;4.47;;;;;;;13.78;74.14;99438.97;5037594;28;20032;-64
2023/03/24 00:58:06;;;;;;;8.60;4.47;;;;;;;13.82;73.99;99439.72;5038456;28;20026;-64
2023/03/24 01:00:31;;;;;;;10.07;5.20;;;;;;;13.76;74.31;99436.34;5037546;28;20056;-64
2023/03/24 01:02:57;;;;;;;12.03;5.13;;;;;;;13.78;74.14;99439.81;5038367;28;21274;-64
2023/03/24 01:05:29;;;;;;;8.95;4.35;;;;;;;13.64;74.99;99439.41;5039832;28;20036;-64
2023/03/24 01:08:01;;;;;;;11.05;4.55;;;;;;;13.74;74.32;99432.91;5058220;28;20029;-64
2023/03/24 01:10:27;;;;;;;12.98;5.40;;;;;;;13.71;74.73;99433.00;5056942;28;20556;-64
2023/03/24 01:12:57;;;;;;;11.00;5.23;;;;;;;13.66;74.99;99426.09;5043648;28;20036;-64
2023/03/24 01:15:26;;;;;;;8.95;4.85;;;;;;;13.72;74.63;99432.09;5038487;28;20022;-64
2023/03/24 01:17:53;;;;;;;9.93;4.68;;;;;;;13.69;74.74;99426.88;5038599;28;20025;-64
2023/03/24 01:20:21;;;;;;;9.40;4.75;;;;;;;13.72;74.31;99416.22;5038324;28;20060;-64
2023/03/24 01:22:48;;;;;;;12.15;5.18;;;;;;;13.74;74.65;99424.06;5038311;28;20465;-64
2023/03/24 01:25:21;;;;;;;12.07;5.73;;;;;;;13.77;74.57;99430.16;5035750;28;20044;-64
2023/03/24 01:27:48;;;;;;;12.18;4.97;;;;;;;13.73;74.41;99431.16;5038355;28;20056;-64
2023/03/24 01:30:16;;;;;;;10.05;5.00;;;;;;;13.77;74.42;99443.38;5037986;28;20068;-64
2023/03/24 01:32:42;;;;;;;11.15;5.10;;;;;;;13.78;74.22;99447.75;5038160;28;20217;-64
2023/03/24 01:35:10;;;;;;;9.77;4.82;;;;;;;13.78;74.36;99457.50;5038124;28;20052;-64
2023/03/24 01:37:36;;;;;;;10.00;4.83;;;;;;;13.81;74.15;99452.09;5038355;28;20052;-64
2023/03/24 01:40:06;;;;;;;9.32;4.40;;;;;;;13.77;74.40;99459.25;5037916;28;20053;-64
2023/03/24 01:42:31;;;;;;;9.93;4.80;;;;;;;13.74;74.66;99467.28;5037811;28;20030;-64
2023/03/24 01:45:00;;;;;;;8.87;4.70;;;;;;;13.80;74.46;99478.59;5037899;28;20026;-64
2023/03/24 01:47:26;;;;;;;11.73;5.53;;;;;;;13.75;74.75;99482.25;5037916;28;20021;-64
2023/03/24 01:49:59;;;;;;;10.30;5.17;;;;;;;13.81;74.34;99480.34;5036677;28;20033;-64
2023/03/24 01:52:29;;;;;;;8.68;4.20;;;;;;;13.85;74.08;99484.63;5037691;28;20036;-64
2023/03/24 01:55:14;;;;;;;9.57;4.35;;;;;;;13.82;74.46;99485.59;5037738;28;20462;-64
2023/03/24 01:57:45;;;;;;;7.88;3.70;;;;;;;13.84;74.26;99485.53;5037285;28;20028;-64
2023/03/24 02:00:13;;;;;;;9.37;3.70;;;;;;;13.89;73.89;99486.28;5037880;28;20061;-64
2023/03/24 02:03:00;;;;;;;7.65;3.38;;;;;;;13.88;74.08;99484.53;5044084;28;20567;-64
2023/03/24 02:05:30;;;;;;;6.97;2.95;;;;;;;13.95;73.47;99486.09;5040795;28;20053;-64
2023/03/24 02:08:09;;;;;;;6.65;3.53;;;;;;;13.97;73.70;99499.25;5037561;28;20204;-64
2023/03/24 02:10:36;;;;;;;6.70;2.97;;;;;;;13.95;73.62;99488.72;5037198;28;20417;-64
2023/03/24 02:13:03;;;;;;;7.80;3.00;;;;;;;14.00;73.36;99484.16;5049327;28;20044;-64
2023/03/24 02:15:31;;;;;;;7.38;3.45;;;;;;;13.99;73.57;99461.25;5057185;28;20010;-64
2023/03/24 02:18:03;;;;;;;6.88;2.97;;;;;;;13.99;73.54;99461.25;5057327;28;20395;-64
2023/03/24 02:20:31;;;;;;;7.60;3.40;;;;;;;13.96;73.69;99450.75;5057200;28;20116;-64
2023/03/24 02:23:44;;;;;;;7.22;2.88;;;;;;;13.91;73.71;99447.41;5041317;28;20100;-64
2023/03/24 02:26:35;;;;;;;7.10;2.87;;;;;;;13.90;73.72;99446.53;5024924;28;20116;-64
2023/03/24 02:29:18;;;;;;;6.72;2.97;;;;;;;13.89;73.86;99443.94;5035988;28;20497;-64
2023/03/24 02:32:15;;;;;;;9.18;3.10;;;;;;;13.85;74.17;99432.56;5036886;28;20022;-64
2023/03/24 02:34:43;;;;;;;7.72;2.83;;;;;;;13.86;73.60;99430.78;5036858;28;20021;-64
2023/03/24 02:37:35;;;;;;;8.93;3.40;;;;;;;13.84;73.96;99432.59;5036790;28;20025;-64
2023/03/24 02:40:14;;;;;;;9.17;3.27;;;;;;;13.87;73.60;99440.47;5035682;28;20029;-64
2023/03/24 02:43:01;;;;;;;7.38;2.80;;;;;;;13.90;73.63;99438.56;5036650;28;20401;-64
2023/03/24 02:45:49;;;;;;;7.20;3.10;;;;;;;13.90;73.67;99435.09;5036726;28;20041;-64
2023/03/24 02:48:24;;;;;;;7.32;3.22;;;;;;;13.92;73.46;99449.13;5035791;28;20171;-64
2023/03/24 02:51:03;;;;;;;8.13;3.20;;;;;;;13.87;73.77;99453.72;5036978;28;20029;-64
2023/03/24 02:53:35;;;;;;;8.43;3.77;;;;;;;13.88;73.78;99458.94;5036698;28;20044;-64
2023/03/24 02:57:02;;;;;;;6.72;3.33;;;;;;;13.86;74.02;99470.47;5036909;28;20029;-64
2023/03/24 02:59:30;;;;;;;7.05;3.28;;;;;;;13.85;73.76;99474.03;4975519;28;20042;-64
2023/03/24 03:02:08;;;;;;;8.52;3.70;;;;;;;13.83;73.99;99457.34;4978372;28;20058;-64
2023/03/24 03:04:40;;;;;;;8.23;3.40;;;;;;;13.77;73.98;99451.31;5009607;28;20382;-64
2023/03/24 03:07:10;;;;;;;9.77;3.83;;;;;;;13.83;73.97;99446.75;5036802;28;20381;-64
2023/03/24 03:09:40;;;;;;;8.07;3.35;;;;;;;13.81;73.99;99444.16;5036438;28;20398;-64
2023/03/24 03:12:09;;;;;;;8.00;3.67;;;;;;;13.84;73.79;99446.72;5035163;28;20033;-64
2023/03/24 03:14:44;;;;;;;7.68;3.38;;;;;;;13.89;73.58;99452.72;5052408;28;20036;-64
2023/03/24 03:17:14;;;;;;;7.78;3.13;;;;;;;13.84;73.85;99437.91;5056679;28;20051;-64
2023/03/24 03:19:44;;;;;;;8.20;3.63;;;;;;;13.88;73.52;99437.75;5056440;28;20128;-64
2023/03/24 03:22:33;;;;;;;7.53;3.50;;;;;;;13.84;73.53;99438.78;5047549;28;20021;-64
2023/03/24 03:25:02;;;;;;;7.90;3.20;;;;;;;13.85;73.51;99436.97;5036321;28;20394;-64
2023/03/24 03:27:37;;;;;;;6.95;3.50;;;;;;;13.84;73.52;99438.78;5034973;28;20108;-64
2023/03/24 03:30:12;;;;;;;6.85;3.17;;;;;;;13.77;73.98;99435.44;5036451;28;20109;-64
2023/03/24 03:32:41;;;;;;;7.70;3.50;;;;;;;13.84;73.37;99437.91;5036384;28;20025;-64
2023/03/24 03:35:15;;;;;;;7.78;3.28;;;;;;;13.77;73.71;99435.44;5036404;28;20022;-64
2023/03/24 03:37:43;;;;;;;8.15;3.05;;;;;;;13.76;73.50;99443.44;5036234;28;20151;-64
2023/03/24 03:40:19;;;;;;;8.63;3.47;;;;;;;13.74;73.55;99445.25;5036394;28;20029;-64
2023/03/24 03:42:45;;;;;;;8.65;3.50;;;;;;;13.76;73.38;99446.94;5034333;28;20025;-64
2023/03/24 03:45:13;;;;;;;6.97;3.20;;;;;;;13.76;73.61;99451.38;5036305;28;20034;-64
2023/03/24 03:47:39;;;;;;;6.93;3.08;;;;;;;13.73;73.48;99452.34;5037401;28;20021;-64
2023/03/24 03:50:07;;;;;;;7.45;3.15;;;;;;;13.72;73.47;99458.53;5040305;28;20112;-65
2023/03/24 03:52:34;;;;;;;7.78;3.38;;;;;;;13.67;73.84;99457.81;5040064;28;20032;-64
2023/03/24 03:55:01;;;;;;;7.78;3.30;;;;;;;13.69;73.65;99463.94;5046733;28;20040;-64
2023/03/24 03:57:26;;;;;;;6.53;3.20;;;;;;;13.69;73.86;99463.94;5051251;28;20025;-64
2023/03/24 03:59:52;;;;;;;6.97;3.28;;;;;;;13.69;73.86;99474.50;5038558;28;20091;-64
2023/03/24 04:02:42;;;;;;;7.73;3.30;;;;;;;13.61;74.31;99474.72;5040046;28;20481;-64
2023/03/24 04:05:41;;;;;;;8.82;3.33;;;;;;;13.62;74.48;99476.47;5039670;28;20026;-64
2023/03/24 04:08:45;;;;;;;7.63;3.27;;;;;;;13.56;74.60;99483.72;5039756;28;20038;-64
2023/03/24 04:11:33;;;;;;;7.47;3.60;;;;;;;13.54;74.73;99496.09;5028545;28;20046;-64
2023/03/24 04:14:10;;;;;;;6.68;2.50;;;;;;;13.49;75.24;99490.94;5053277;28;20024;-64
2023/03/24 04:17:18;;;;;;;7.47;3.00;;;;;;;13.54;74.70;99488.19;5059578;28;20025;-64
2023/03/24 04:19:56;;;;;;;5.88;2.75;;;;;;;13.49;74.83;99493.59;5059709;28;20025;-64
2023/03/24 04:22:48;;;;;;;5.57;2.77;;;;;;;13.50;74.97;99492.69;5048701;28;20405;-64
2023/03/24 04:25:43;;;;;;;5.00;2.63;;;;;;;13.49;74.78;99490.94;5039463;28;20367;-63
2023/03/24 04:28:27;;;;;;;6.55;2.50;;;;;;;13.46;74.94;99502.50;5039454;28;20397;-64
2023/03/24 04:31:02;;;;;;;5.85;2.63;;;;;;;13.46;74.67;99504.25;5039381;28;20022;-64
2023/03/24 04:34:02;;;;;;;5.53;2.40;;;;;;;13.38;75.25;99506.22;5039254;28;20030;-64
2023/03/24 04:36:28;;;;;;;5.97;2.10;;;;;;;13.39;75.07;99519.41;5029144;28;20075;-64
2023/03/24 04:38:56;;;;;;;4.95;2.17;;;;;;;13.42;74.76;99516.69;5039262;28;20033;-64
2023/03/24 04:41:24;;;;;;;6.37;2.10;;;;;;;13.48;74.72;99524.47;5038821;28;20060;-64
2023/03/24 04:43:51;;;;;;;5.50;2.20;;;;;;;13.55;74.28;99521.66;5039133;28;20021;-64
2023/03/24 04:46:17;;;;;;;5.28;2.42;;;;;;;13.58;74.50;99529.50;5038905;28;20030;-64
2023/03/24 04:48:47;;;;;;;4.77;1.83;;;;;;;13.61;74.10;99526.75;5039079;28;20041;-64
2023/03/24 04:51:14;;;;;;;5.68;2.20;;;;;;;13.60;74.27;99530.31;5044537;28;20024;-63
2023/03/24 04:53:39;;;;;;;6.90;2.30;;;;;;;13.59;74.35;99533.88;5059042;28;20037;-63
2023/03/24 04:56:26;;;;;;;6.63;2.60;;;;;;;13.57;74.66;99535.69;5058620;28;20548;-63
2023/03/24 04:58:51;;;;;;;8.15;2.60;;;;;;;13.57;74.54;99544.50;5053611;28;20627;-63
2023/03/24 05:01:20;;;;;;;4.73;2.13;;;;;;;13.60;74.20;99547.06;5056195;28;20056;-63
2023/03/24 05:03:46;;;;;;;5.13;2.05;;;;;;;13.62;74.12;99549.66;5038779;28;20060;-64
2023/03/24 05:06:11;;;;;;;6.78;2.72;;;;;;;13.57;74.38;99547.16;5038588;28;20478;-63
2023/03/24 05:08:37;;;;;;;5.40;2.30;;;;;;;13.59;74.21;99544.44;5038552;28;20036;-64
2023/03/24 05:11:03;;;;;;;5.38;2.40;;;;;;;13.59;74.40;99557.69;5038625;28;20073;-63
2023/03/24 05:13:30;;;;;;;7.38;3.30;;;;;;;13.57;74.32;99548.94;5038324;28;20549;-63
2023/03/24 05:15:55;;;;;;;7.15;2.30;;;;;;;13.57;74.40;99554.22;5038764;28;20483;-63
2023/03/24 05:18:21;;;;;;;5.47;2.70;;;;;;;13.54;74.51;99555.19;5038610;28;20037;-64
2023/03/24 05:20:46;;;;;;;7.43;2.30;;;;;;;13.49;74.65;99571.19;5038487;28;20555;-63
2023/03/24 05:23:12;;;;;;;6.73;2.63;;;;;;;13.46;74.68;99573.91;5038335;28;20037;-63
2023/03/24 05:25:37;;;;;;;5.57;2.27;;;;;;;13.42;74.95;99569.59;5038587;28;20025;-63
2023/03/24 05:28:03;;;;;;;5.33;2.73;;;;;;;13.44;75.00;99569.56;5038015;28;20027;-63
2023/03/24 05:30:28;;;;;;;6.37;2.60;;;;;;;13.42;75.00;99572.22;5042813;28;20441;-63
2023/03/24 05:32:53;;;;;;;6.57;2.47;;;;;;;13.47;74.51;99585.34;5055486;28;20028;-63
2023/03/24 05:35:19;;;;;;;5.03;2.10;;;;;;;13.44;74.55;99599.53;5056905;28;20102;-64
2023/03/24 05:37:44;;;;;;;5.50;2.27;;;;;;;13.46;74.71;99604.75;5038080;28;20035;-63
2023/03/24 05:40:10;;;;;;;6.87;2.67;;;;;;;13.49;74.20;99602.91;5038240;28;20049;-63
2023/03/24 05:42:35;;;;;;;7.60;2.17;;;;;;;13.51;74.34;99596.72;5036369;28;20559;-63
2023/03/24 05:45:02;;;;;;;5.73;2.80;;;;;;;13.50;74.37;99593.19;5038022;28;20498;-63
2023/03/24 05:47:27;;;;;;;6.95;2.72;;;;;;;13.55;74.24;99604.53;5042647;28;20039;-63
2023/03/24 05:49:52;;;;;;;7.57;3.00;;;;;;;13.54;74.34;99604.56;5058160;28;20056;-65
2023/03/24 05:52:19;;;;;;;7.60;2.87;;;;;;;13.57;74.29;99613.28;5057856;28;20029;-64
2023/03/24 05:54:45;;;;;;;6.77;3.30;;;;;;;13.56;74.30;99634.47;5057774;28;20295;-63
2023/03/24 05:57:13;;;;;;;5.65;2.90;;;;;;;13.55;74.35;99624.81;5051011;28;20025;-65
2023/03/24 05:59:38;;;;;;;7.55;3.38;;;;;;;13.52;74.52;99627.53;5036514;28;20120;-63
2023/03/24 06:02:04;;;;;;;7.93;3.27;;;;;;;13.51;74.48;99629.34;5037632;28;20049;-63
2023/03/24 06:04:30;;;;;;;5.75;2.90;;;;;;;13.52;74.64;99635.47;5037354;28;20018;-63
2023/03/24 06:06:57;;;;;;;8.43;3.07;;;;;;;13.51;74.46;99626.69;5037518;28;20025;-63
2023/03/24 06:09:34;;;;;;;9.95;3.20;;;;;;;13.51;74.48;99628.44;5037431;28;20424;-64
2023/03/24 06:12:01;;;;;;;7.95;3.20;;;;;;;13.48;74.13;99624.97;5037139;28;20057;-64
2023/03/24 06:14:28;;;;;;;6.77;3.10;;;;;;;13.53;74.34;99624.00;5037433;28;20485;-64
2023/03/24 06:16:53;;;;;;;5.63;2.67;;;;;;;13.58;73.94;99627.38;5037730;28;20501;-64
2023/03/24 06:19:23;;;;;;;6.57;2.97;;;;;;;13.60;73.89;99641.44;5036106;28;20444;-65
2023/03/24 06:21:49;;;;;;;6.63;3.10;;;;;;;13.60;73.94;99644.06;5036067;28;20458;-64
2023/03/24 06:24:16;;;;;;;6.30;2.87;;;;;;;13.62;73.58;99647.53;5037474;28;20061;-64
2023/03/24 06:26:43;;;;;;;7.10;3.20;;;;;;;13.62;73.53;99642.25;5037062;28;20456;-64
2023/03/24 06:29:10;;;;;;;7.68;3.25;;;;;;;13.62;73.69;99647.53;5037190;28;20028;-64
2023/03/24 06:31:36;;;;;;;6.25;2.95;;;;;;;13.65;73.49;99652.78;5036973;28;20056;-65
2023/03/24 06:34:03;;;;;;;6.30;2.80;;;;;;;13.72;73.17;99664.03;5035634;28;20159;-64
2023/03/24 06:36:28;;;;;;;8.18;3.17;;;;;;;13.73;72.98;99669.31;5035695;28;20021;-65
2023/03/24 06:38:54;;;;;;;7.72;3.17;;;;;;;13.75;72.93;99669.28;5036913;28;20105;-64
2023/03/24 06:41:19;;;;;;;6.30;2.90;;;;;;;13.74;73.24;99681.63;5037050;28;20026;-64
2023/03/24 06:43:45;;;;;;;8.73;3.50;;;;;;;13.76;72.90;99681.59;5040289;28;20091;-64
2023/03/24 06:46:10;;;;;;;6.83;3.20;;;;;;;13.78;72.87;99679.78;5048063;28;20026;-64
2023/03/24 06:48:37;;;;;;;9.07;3.10;;;;;;;13.93;72.44;99689.06;5036918;28;20096;-64
2023/03/24 06:51:02;;;;;;;8.27;3.58;;;;;;;14.18;71.78;99691.03;5037243;28;20064;-65
2023/03/24 06:53:28;;;;;;;7.23;3.47;;;;;;;14.42;71.24;99701.84;5036724;28;20025;-65
2023/03/24 06:55:53;;;;;;;7.37;3.83;;;;;;;14.53;70.83;99710.34;5037166;28;20097;-65
2023/03/24 06:58:19;;;;;;;10.83;4.67;;;;;;;14.51;70.84;99701.56;5027983;28;20421;-65
2023/03/24 07:00:45;;;;;;;11.73;5.10;;;;;;;14.57;70.96;99706.66;5036153;28;20311;-65
2023/03/24 07:03:12;;;;;;;12.40;4.88;;;;;;;14.71;70.82;99702.78;5026155;28;20040;-66
2023/03/24 07:05:42;;;;;;;8.87;4.50;;;;;;;14.81;70.20;99704.22;5036054;28;20036;-65
2023/03/24 07:08:08;;;;;;;10.52;4.13;;;;;;;15.01;69.87;99702.75;5034227;28;20030;-65
2023/03/24 07:10:34;;;;;;;10.38;4.70;;;;;;;15.19;69.41;99696.88;5033936;28;20053;-65
2023/03/24 07:13:02;;;;;;;10.80;5.27;;;;;;;15.32;69.05;99704.44;5038210;28;20112;-66
2023/03/24 07:15:27;;;;;;;9.68;4.47;;;;;;;15.40;68.77;99704.16;5043804;28;20029;-66
2023/03/24 07:17:53;;;;;;;10.73;4.68;;;;;;;15.48;68.68;99705.63;5036484;28;20481;-66
2023/03/24 07:20:19;;;;;;;8.43;4.57;;;;;;;15.48;68.68;99705.63;5036350;28;20088;-65
2023/03/24 07:22:44;;;;;;;8.30;4.40;;;;;;;15.53;68.40;99709.91;5035907;28;20058;-66
2023/03/24 07:25:13;;;;;;;9.87;4.30;;;;;;;15.66;68.09;99711.25;5038325;28;20072;-66
2023/03/24 07:27:39;;;;;;;8.95;4.18;;;;;;;15.63;68.09;99716.66;5041620;28;20022;-67
2023/03/24 07:30:06;;;;;;;8.50;4.18;;;;;;;15.60;68.08;99719.44;5039485;28;20072;-67
2023/03/24 07:32:38;;;;;;;7.73;3.50;;;;;;;15.63;68.24;99714.00;5040210;28;20034;-66
2023/03/24 07:35:12;;;;;;;8.65;3.50;;;;;;;15.65;67.72;99714.84;5040523;28;20080;-67
2023/03/24 07:37:38;;;;;;;9.65;4.20;;;;;;;15.65;68.23;99712.19;5037687;28;20124;-66
2023/03/24 07:40:08;;;;;;;8.30;4.05;;;;;;;15.73;68.07;99710.13;5032639;28;20034;-66
2023/03/24 07:42:33;;;;;;;9.77;4.13;;;;;;;15.84;67.59;99722.16;5043105;28;20417;-66
2023/03/24 07:44:59;;;;;;;10.33;3.73;;;;;;;15.84;67.35;99728.31;5060366;28;20022;-67
2023/03/24 07:47:24;;;;;;;10.83;3.93;;;;;;;15.79;67.34;99735.59;5042237;28;20029;-67
2023/03/24 07:49:49;;;;;;;10.97;3.80;;;;;;;15.84;67.26;99743.41;5038790;28;20108;-66
2023/03/24 07:52:15;;;;;;;9.25;4.32;;;;;;;15.97;66.63;99750.03;5037955;28;20021;-66
2023/03/24 07:54:40;;;;;;;8.70;3.90;;;;;;;16.20;66.69;99748.38;5043779;28;20029;-66
2023/03/24 07:57:06;;;;;;;9.17;3.73;;;;;;;16.36;66.19;99746.91;5039442;28;20481;-66
2023/03/24 07:59:32;;;;;;;9.18;3.30;;;;;;;16.46;65.63;99747.44;5038251;28;20021;-66
2023/03/24 08:01:58;;;;;;;7.88;3.55;;;;;;;16.55;65.54;99758.63;5038461;28;20030;-67
2023/03/24 08:04:25;;;;;;;11.33;3.80;;;;;;;16.52;65.20;99756.09;5039269;28;20025;-66
2023/03/24 08:06:52;;;;;;;9.77;4.00;;;;;;;16.43;65.25;99747.56;5039989;28;20029;-66
2023/03/24 08:09:18;;;;;;;7.47;3.13;;;;;;;16.46;65.62;99749.22;5039213;28;20112;-67
2023/03/24 08:11:43;;;;;;;9.87;2.97;;;;;;;16.54;65.51;99744.50;5039083;28;20053;-66
2023/03/24 08:14:08;;;;;;;9.25;3.92;;;;;;;16.63;65.35;99748.56;5039819;28;20041;-66
2023/03/24 08:16:34;;;;;;;8.27;3.20;;;;;;;16.71;65.11;99743.84;5039507;28;20029;-66
2023/03/24 08:18:59;;;;;;;9.97;3.50;;;;;;;16.93;64.84;99741.22;5039699;28;20049;-66
2023/03/24 08:21:25;;;;;;;7.33;3.43;;;;;;;17.13;64.56;99752.91;5039102;28;20025;-67
2023/03/24 08:23:51;;;;;;;8.05;3.83;;;;;;;17.31;63.28;99761.09;5039026;28;20032;-66
2023/03/24 08:26:16;;;;;;;7.83;3.43;;;;;;;17.46;63.03;99754.28;5039259;28;20029;-67
2023/03/24 08:28:42;;;;;;;8.10;3.80;;;;;;;17.52;62.53;99758.50;5038193;28;20053;-66
2023/03/24 08:31:08;;;;;;;6.50;3.23;;;;;;;17.59;62.44;99759.97;5042549;28;20033;-67
2023/03/24 08:33:34;;;;;;;8.43;3.90;;;;;;;17.76;61.71;99759.25;5038803;28;20033;-67
2023/03/24 08:35:59;;;;;;;8.57;3.92;;;;;;;17.78;60.99;99763.59;5044639;28;20025;-67
2023/03/24 08:38:29;;;;;;;8.63;3.50;;;;;;;17.81;60.99;99764.41;5059226;28;20078;-66
2023/03/24 08:40:57;;;;;;;8.18;3.42;;;;;;;17.75;61.22;99769.06;5053961;28;20465;-67
2023/03/24 08:43:24;;;;;;;8.10;3.50;;;;;;;17.53;61.92;99766.41;5038864;28;20489;-67
2023/03/24 08:45:50;;;;;;;6.90;3.33;;;;;;;17.49;62.05;99768.34;5038811;28;20021;-67
2023/03/24 08:48:16;;;;;;;9.50;3.35;;;;;;;17.68;61.69;99764.91;5039375;28;20091;-66
2023/03/24 08:50:41;;;;;;;10.47;3.67;;;;;;;17.75;61.61;99769.06;5038796;28;20037;-67
2023/03/24 08:53:08;;;;;;;7.45;3.22;;;;;;;17.90;61.36;99780.84;5037533;28;20022;-66
2023/03/24 08:55:36;;;;;;;8.73;4.20;;;;;;;18.04;60.83;99782.97;5038926;28;20547;-67
2023/03/24 08:58:02;;;;;;;9.90;3.40;;;;;;;18.05;60.93;99784.69;5038569;28;20033;-67
2023/03/24 09:00:27;;;;;;;10.60;3.65;;;;;;;18.08;60.96;99789.88;5038716;28;20025;-67
2023/03/24 09:02:54;;;;;;;8.60;3.47;;;;;;;18.17;61.11;99798.41;5038469;28;20033;-67
2023/03/24 09:05:22;;;;;;;11.15;4.38;;;;;;;18.28;59.42;99801.50;5038477;28;20033;-67
2023/03/24 09:07:49;;;;;;;7.53;4.00;;;;;;;18.35;59.68;99812.75;5038765;28;20068;-67
2023/03/24 09:10:15;;;;;;;9.48;4.32;;;;;;;18.47;59.32;99822.88;5037133;28;20061;-67
2023/03/24 09:12:41;;;;;;;8.60;4.43;;;;;;;18.64;58.78;99839.94;5038068;28;20029;-67
2023/03/24 09:15:08;;;;;;;7.27;3.77;;;;;;;18.72;58.45;99836.91;5038373;28;20018;-66
2023/03/24 09:17:35;;;;;;;11.07;4.03;;;;;;;18.84;58.05;99852.34;5038207;28;20033;-67
2023/03/24 09:20:00;;;;;;;7.95;3.83;;;;;;;18.93;58.22;99851.06;5037220;28;20151;-66
2023/03/24 09:22:26;;;;;;;7.73;4.00;;;;;;;18.90;58.03;99862.75;5037898;28;20061;-67
2023/03/24 09:24:51;;;;;;;8.90;3.92;;;;;;;18.82;58.40;99870.22;5037999;28;20409;-67
2023/03/24 09:27:17;;;;;;;9.80;4.03;;;;;;;18.73;58.17;99870.66;5036940;28;20118;-67
2023/03/24 09:29:42;;;;;;;8.80;4.70;;;;;;;18.64;58.59;99863.94;5037764;28;20033;-67
2023/03/24 09:32:08;;;;;;;8.13;3.90;;;;;;;18.57;58.88;99862.47;5039289;28;20021;-67
2023/03/24 09:34:37;;;;;;;8.57;4.17;;;;;;;18.46;58.95;99858.47;5057267;28;20105;-67
2023/03/24 09:37:03;;;;;;;8.25;4.10;;;;;;;18.46;59.25;99868.28;5042553;28;20032;-67
2023/03/24 09:39:28;;;;;;;7.63;3.85;;;;;;;18.40;59.33;99873.84;5040412;28;20033;-67
2023/03/24 09:41:54;;;;;;;8.53;3.80;;;;;;;18.40;59.53;99869.41;5037616;28;20121;-66
2023/03/24 09:44:30;;;;;;;8.60;4.20;;;;;;;18.42;59.02;99864.88;5037724;28;20048;-67
2023/03/24 09:47:10;;;;;;;8.93;4.30;;;;;;;18.48;59.10;99866.41;5036564;28;20040;-67
2023/03/24 09:49:40;;;;;;;11.05;4.15;;;;;;;18.52;58.65;99878.66;5038113;28;20049;-67
2023/03/24 09:52:09;;;;;;;10.18;4.30;;;;;;;18.56;57.24;99880.25;5037470;28;20028;-67
2023/03/24 09:54:47;;;;;;;10.40;4.00;;;;;;;18.60;57.27;99894.34;5035907;28;20073;-67
2023/03/24 09:57:38;;;;;;;7.80;3.38;;;;;;;18.56;57.56;99898.94;5034144;28;20030;-66
2023/03/24 10:00:17;;;;;;;8.57;3.60;;;;;;;18.57;57.51;99892.66;5035943;28;20075;-66
2023/03/24 10:02:44;;;;;;;8.05;3.10;;;;;;;18.62;57.77;99893.31;5037479;28;20104;-66
2023/03/24 10:05:16;;;;;;;10.20;3.60;;;;;;;18.61;57.86;99891.59;5037265;28;20041;-67
2023/03/24 10:07:51;;;;;;;8.85;4.45;;;;;;;18.63;57.45;99892.38;5037779;28;20477;-67
2023/03/24 10:10:44;;;;;;;8.88;4.00;;;;;;;18.61;57.65;99899.59;5037316;28;20038;-66
2023/03/24 10:13:20;;;;;;;9.87;3.67;;;;;;;18.65;57.74;99895.84;5037141;28;20026;-67
2023/03/24 10:16:06;;;;;;;10.00;3.20;;;;;;;18.72;57.85;99891.13;5036368;28;20051;-67
2023/03/24 10:18:49;;;;;;;7.75;3.30;;;;;;;18.87;57.28;99878.88;5037496;28;20056;-67
2023/03/24 10:21:26;;;;;;;7.40;3.03;;;;;;;19.07;57.32;99883.38;5037217;28;20059;-67
2023/03/24 10:24:05;;;;;;;6.10;2.88;;;;;;;19.26;56.45;99884.31;5037402;28;20063;-67
2023/03/24 10:27:10;;;;;;;7.30;2.50;;;;;;;19.33;56.44;99885.75;5037259;28;20478;-67
2023/03/24 10:29:37;;;;;;;4.85;2.33;;;;;;;19.43;56.06;99883.53;5038383;28;20029;-67
2023/03/24 10:32:14;;;;;;;5.40;1.85;;;;;;;19.44;55.39;99887.94;5037339;28;20031;-67
2023/03/24 10:34:44;;;;;;;6.18;1.65;;;;;;;19.57;55.81;99890.88;5037255;28;20057;-67
2023/03/24 10:37:10;;;;;;;4.75;1.20;;;;;;;19.74;55.43;99887.41;5037332;28;20516;-67
2023/03/24 10:39:36;;;;;;;6.13;1.60;;;;;;;19.82;54.82;99890.59;5037218;28;20485;-66
2023/03/24 10:42:03;;;;;;;5.75;2.03;;;;;;;19.84;54.66;99880.69;5036980;28;20041;-66
2023/03/24 10:44:31;;;;;;;4.25;1.60;;;;;;;19.92;54.84;99877.69;5037190;28;20021;-66
2023/03/24 10:47:03;;;;;;;4.72;1.30;;;;;;;20.00;54.10;99886.16;5036860;28;20108;-67
2023/03/24 10:49:29;;;;;;;5.83;1.23;;;;;;;20.10;53.86;99891.91;5037244;28;20107;-66
2023/03/24 10:52:02;;;;;;;6.03;1.42;;;;;;;20.32;52.77;99891.69;5052229;28;20025;-66
2023/03/24 10:54:30;;;;;;;4.93;1.20;;;;;;;20.63;52.37;99889.25;5056904;28;20036;-67
2023/03/24 10:57:04;;;;;;;5.75;1.15;;;;;;;20.99;52.32;99882.06;5051982;28;20021;-66
2023/03/24 10:59:33;;;;;;;4.33;1.00;;;;;;;21.23;50.25;99887.91;5037143;28;20029;-66
2023/03/24 11:02:09;;;;;;;4.10;1.10;;;;;;;21.32;51.15;99890.06;5036865;28;20029;-66
2023/03/24 11:04:40;;;;;;;5.30;1.08;;;;;;;21.29;49.98;99886.69;5036558;28;20029;-66
2023/03/24 11:07:19;;;;;;;5.57;1.17;;;;;;;21.32;49.88;99884.72;5037026;28;20120;-67
2023/03/24 11:10:14;;;;;;;4.80;1.10;;;;;;;21.56;49.98;99895.03;5036520;28;20045;-67
2023/03/24 11:12:42;;;;;;;5.17;1.20;;;;;;;21.84;50.03;99898.00;5036562;28;20065;-66
2023/03/24 11:15:21;;;;;;;5.20;0.90;;;;;;;22.16;49.02;99897.94;5036786;28;20025;-66
2023/03/24 11:17:52;;;;;;;5.07;1.00;;;;;;;22.14;48.56;99906.06;5035353;28;20040;-66
2023/03/24 11:20:27;;;;;;;3.72;1.00;;;;;;;21.91;47.94;99912.78;5036896;28;20481;-67
2023/03/24 11:23:03;;;;;;;4.25;1.27;;;;;;;21.77;48.37;99919.75;5032399;28;20041;-66
2023/03/24 11:25:33;;;;;;;5.63;1.20;;;;;;;21.61;48.48;99917.06;5049253;28;20088;-66
2023/03/24 11:28:01;;;;;;;4.18;1.00;;;;;;;21.57;49.02;99919.97;5056280;28;20075;-66
2023/03/24 11:30:33;;;;;;;3.40;0.90;;;;;;;21.47;48.79;99917.81;5043930;28;20029;-66
2023/03/24 11:32:59;;;;;;;4.40;1.10;;;;;;;21.46;48.81;99926.81;5036211;28;20025;-66
2023/03/24 11:35:26;;;;;;;6.03;1.20;;;;;;;21.42;49.11;99925.25;5032342;28;20088;-66
2023/03/24 11:37:51;;;;;;;5.20;1.20;;;;;;;21.46;49.08;99931.28;5045697;28;20021;-66
2023/03/24 11:40:23;;;;;;;5.85;1.40;;;;;;;21.41;49.00;99939.59;5034195;28;20041;-66
2023/03/24 11:42:54;;;;;;;4.90;1.00;;;;;;;21.48;48.53;99930.28;5035798;28;20512;-66
2023/03/24 11:45:28;;;;;;;4.20;1.10;;;;;;;21.56;48.74;99937.00;5033902;28;20032;-66
2023/03/24 11:47:57;;;;;;;5.57;1.40;;;;;;;21.73;48.83;99931.63;5070259;28;20033;-66